Time;durP1;ratioP1;P1;durP2;ratioP2;P2;SDS_P1;SDS_P2;PMS_P1;PMS_P2;Temp;Humidity;BMP_temperature;BMP_pressure;BME280_temperature;BME280_humidity;BME280_pressure;Samples;Min_cycle;Max_cycle;Signal;HPM_P1;HPM_P2
2023/10/15 00:01:44;;;;;;;4.72;1.15;;;;;;;4.51;56.34;101333.63;4978048;28;20404;-67
2023/10/15 00:04:12;;;;;;;3.22;1.00;;;;;;;4.75;55.30;101334.31;4978365;28;20045;-68
2023/10/15 00:06:40;;;;;;;5.40;0.50;;;;;;;4.87;55.36;101328.16;4988650;28;20127;-68
2023/10/15 00:09:06;;;;;;;8.40;0.20;;;;;;;4.78;55.34;101332.53;4985178;28;20205;-69
2023/10/15 00:11:32;;;;;;;3.50;0.32;;;;;;;4.94;55.20;101333.28;4968745;28;20034;-69
2023/10/15 00:13:58;;;;;;;5.32;0.20;;;;;;;4.90;55.10;101333.34;4979657;28;20076;-66
2023/10/15 00:16:24;;;;;;;3.95;0.15;;;;;;;4.75;54.99;101326.56;4977373;28;20050;-67
2023/10/15 00:18:50;;;;;;;2.72;0.20;;;;;;;4.96;54.66;101335.88;4973467;28;20068;-67
2023/10/15 00:21:15;;;;;;;3.90;0.60;;;;;;;4.97;54.64;101335.03;4981261;28;20464;-69
2023/10/15 00:23:42;;;;;;;5.53;0.40;;;;;;;4.95;55.11;101335.03;4976607;28;20038;-68
2023/10/15 00:26:10;;;;;;;6.90;0.68;;;;;;;4.56;56.22;101351.72;4977724;28;20038;-69
2023/10/15 00:28:37;;;;;;;1.73;0.10;;;;;;;4.74;56.20;101361.06;4976719;28;20495;-71
2023/10/15 00:31:13;;;;;;;5.53;0.43;;;;;;;4.64;56.54;101355.97;4977166;28;20118;-68
2023/10/15 00:33:44;;;;;;;1.92;0.10;;;;;;;4.70;56.48;101355.06;4979146;28;20590;-70
2023/10/15 00:36:13;;;;;;;0.75;0.10;;;;;;;4.48;55.98;101348.34;4967912;28;20732;-69
2023/10/15 00:38:45;;;;;;;5.47;0.35;;;;;;;4.53;54.40;101346.56;4983114;28;20030;-67
2023/10/15 00:41:16;;;;;;;1.27;0.30;;;;;;;4.28;54.31;101403.66;4976968;28;20042;-67
2023/10/15 00:43:59;;;;;;;2.55;0.15;;;;;;;3.97;53.98;101393.44;4991566;28;20030;-69
2023/10/15 00:46:32;;;;;;;4.78;0.10;;;;;;;3.74;56.93;101384.94;4962324;28;20045;-69
2023/10/15 00:49:09;;;;;;;0.65;0.10;;;;;;;3.33;57.84;101370.38;4961380;28;20047;-71
2023/10/15 00:51:42;;;;;;;2.75;0.10;;;;;;;3.88;56.41;101354.69;4990157;28;20099;-69
2023/10/15 00:54:12;;;;;;;0.95;0.10;;;;;;;4.32;55.86;101342.38;4978311;28;20058;-69
2023/10/15 00:56:39;;;;;;;2.17;0.40;;;;;;;4.46;55.71;101334.53;4965041;28;20029;-70
2023/10/15 01:01:34;;;;;;;0.70;0.00;;;;;;;4.58;55.65;101316.31;4980656;28;20061;-71
2023/10/15 01:04:01;;;;;;;3.75;0.30;;;;;;;4.45;55.76;101312.09;4966906;28;20030;-71
2023/10/15 01:06:35;;;;;;;1.40;0.10;;;;;;;4.25;56.64;101313.09;4982721;28;20519;-73
2023/10/15 01:09:17;;;;;;;0.95;0.10;;;;;;;4.26;57.08;101326.91;4982713;28;20494;-73
2023/10/15 01:11:44;;;;;;;1.40;0.10;;;;;;;4.06;57.93;101319.28;4960451;28;20147;-72
2023/10/15 01:14:13;;;;;;;1.13;0.10;;;;;;;4.06;58.21;101330.47;4977976;28;20042;-69
2023/10/15 01:16:40;;;;;;;3.78;0.10;;;;;;;4.25;58.20;101345.88;4977838;28;20033;-71
2023/10/15 01:21:58;;;;;;;0.73;0.00;;;;;;;4.12;58.92;101335.63;4977016;28;20041;-70
2023/10/15 01:24:25;;;;;;;3.70;0.32;;;;;;;4.36;58.29;101331.13;4977620;28;20041;-69
2023/10/15 01:29:34;;;;;;;1.63;0.10;;;;;;;3.75;59.85;101320.28;4977534;28;20120;-68
2023/10/15 01:32:09;;;;;;;1.85;0.20;;;;;;;4.09;58.17;101314.06;4975867;28;20081;-66
2023/10/15 01:34:45;;;;;;;3.90;0.20;;;;;;;4.15;58.16;101319.22;4983434;28;20041;-66
2023/10/15 01:39:49;;;;;;;4.30;0.20;;;;;;;4.10;58.39;101316.66;4985964;28;20136;-67
2023/10/15 01:44:58;;;;;;;3.33;0.10;;;;;;;3.78;59.92;101319.38;4986608;28;20030;-69
2023/10/15 01:47:28;;;;;;;7.03;0.10;;;;;;;3.94;59.56;101313.31;4967860;28;20034;-66
2023/10/15 01:49:56;;;;;;;6.97;0.20;;;;;;;3.88;59.47;101315.91;4972019;28;20077;-66
2023/10/15 01:52:32;;;;;;;3.80;0.10;;;;;;;4.01;59.31;101322.75;4992850;28;20073;-69
2023/10/15 01:55:03;;;;;;;3.95;0.40;;;;;;;3.94;59.18;101326.22;4974876;28;21177;-69
2023/10/15 01:57:29;;;;;;;6.45;0.40;;;;;;;3.74;59.44;101322.88;4985528;28;20393;-68
2023/10/15 02:00:05;;;;;;;3.05;0.20;;;;;;;3.29;60.33;101322.16;4979557;28;20556;-68
2023/10/15 02:02:38;;;;;;;1.30;0.20;;;;;;;3.79;58.52;101331.47;4985111;28;20114;-67
2023/10/15 02:05:04;;;;;;;1.27;0.13;;;;;;;3.83;58.04;101324.53;4973746;28;20046;-68
2023/10/15 02:07:31;;;;;;;2.58;0.30;;;;;;;3.95;57.81;101321.91;4968080;28;20038;-69
2023/10/15 02:09:56;;;;;;;3.30;0.40;;;;;;;3.80;57.74;101328.00;4973065;28;20488;-66
2023/10/15 02:12:22;;;;;;;1.58;0.20;;;;;;;4.05;57.11;101327.88;4983636;28;20053;-68
2023/10/15 02:14:48;;;;;;;0.85;0.65;;;;;;;4.37;56.23;101338.06;4978232;28;20184;-69
2023/10/15 02:17:23;;;;;;;2.17;0.10;;;;;;;4.18;56.69;101342.47;4979706;28;20263;-68
2023/10/15 02:19:55;;;;;;;2.28;0.22;;;;;;;4.47;55.95;101362.13;4949008;28;20499;-68
2023/10/15 02:22:21;;;;;;;3.15;0.10;;;;;;;4.41;56.29;101363.06;4986718;28;20049;-68
2023/10/15 02:24:46;;;;;;;2.92;0.10;;;;;;;3.92;57.14;101369.34;4963559;28;20037;-66
2023/10/15 02:27:25;;;;;;;5.15;0.30;;;;;;;3.75;57.64;101365.97;4976344;28;20073;-65
2023/10/15 02:29:53;;;;;;;1.25;0.20;;;;;;;3.53;58.27;101381.53;4971804;28;20468;-68
2023/10/15 02:34:54;;;;;;;2.15;0.20;;;;;;;3.86;58.44;101368.50;4986457;28;20046;-68
2023/10/15 02:37:26;;;;;;;3.70;0.30;;;;;;;3.86;58.25;101342.66;4969658;28;20398;-69
2023/10/15 02:39:51;;;;;;;1.73;0.00;;;;;;;4.05;56.74;101335.63;4970856;28;20649;-69
2023/10/15 02:42:20;;;;;;;0.55;0.00;;;;;;;4.19;55.15;101315.75;4982101;28;20076;-70
2023/10/15 02:44:52;;;;;;;0.13;0.00;;;;;;;4.49;54.58;101319.84;4973582;28;20570;-69
2023/10/15 02:50:23;;;;;;;1.35;0.10;;;;;;;4.54;55.13;101314.63;4967875;28;20140;-70
2023/10/15 02:52:49;;;;;;;1.38;0.10;;;;;;;4.55;55.29;101317.19;4974748;28;20042;-70
2023/10/15 02:55:16;;;;;;;0.25;0.20;;;;;;;4.45;55.37;101315.53;4968363;28;20069;-69
2023/10/15 02:57:44;;;;;;;8.27;0.85;;;;;;;4.11;56.77;101314.91;4959428;28;20038;-69
2023/10/15 03:00:13;;;;;;;4.40;0.10;;;;;;;4.19;56.54;101307.97;4966134;28;20046;-70
2023/10/15 03:02:46;;;;;;;3.22;0.10;;;;;;;3.85;57.56;101304.72;4968143;28;20057;-68
2023/10/15 03:05:13;;;;;;;2.35;0.10;;;;;;;3.95;57.21;101320.19;4958255;28;20527;-68
2023/10/15 03:07:43;;;;;;;9.55;0.13;;;;;;;3.74;58.53;101322.88;4960388;28;20093;-67
2023/10/15 03:10:13;;;;;;;0.28;0.10;;;;;;;3.45;59.54;101326.44;4964815;28;20034;-69
2023/10/15 03:12:44;;;;;;;1.45;0.40;;;;;;;3.36;59.89;101331.63;4959468;28;20278;-70
2023/10/15 03:15:12;;;;;;;1.65;0.00;;;;;;;3.61;59.37;101332.41;4957623;28;20601;-69
2023/10/15 03:17:40;;;;;;;6.18;0.20;;;;;;;3.64;59.08;101339.28;4969811;28;20034;-71
2023/10/15 03:22:46;;;;;;;3.67;0.20;;;;;;;3.62;58.76;101335.84;4961050;28;20089;-70
2023/10/15 03:25:16;;;;;;;4.57;0.13;;;;;;;2.83;61.48;101338.53;4957525;28;20170;-71
2023/10/15 03:27:46;;;;;;;0.98;0.10;;;;;;;3.29;59.88;101340.22;4960118;28;20065;-71
2023/10/15 03:30:13;;;;;;;4.20;0.10;;;;;;;3.23;59.56;101343.69;4964657;28;20164;-66
2023/10/15 03:32:44;;;;;;;2.75;0.47;;;;;;;3.12;59.83;101338.53;4962426;28;20138;-69
2023/10/15 03:35:17;;;;;;;2.78;0.10;;;;;;;3.32;59.55;101333.34;4955869;28;20070;-67
2023/10/15 03:37:49;;;;;;;6.93;0.55;;;;;;;3.30;59.69;101321.31;4959690;28;20034;-66
2023/10/15 03:43:06;;;;;;;4.30;0.15;;;;;;;3.44;59.07;101319.53;4955712;28;20042;-67
2023/10/15 03:45:33;;;;;;;6.65;0.85;;;;;;;2.82;61.72;101320.47;4959982;28;20121;-67
2023/10/15 03:48:00;;;;;;;2.58;0.10;;;;;;;3.14;61.12;101330.78;4954964;28;20545;-65
2023/10/15 03:50:29;;;;;;;3.03;0.45;;;;;;;3.65;59.77;101338.41;4956177;28;20038;-64
2023/10/15 03:52:56;;;;;;;3.50;0.28;;;;;;;3.92;59.08;101342.63;4958395;28;20333;-65
2023/10/15 03:55:22;;;;;;;2.42;0.32;;;;;;;3.64;59.61;101347.91;4957954;28;21495;-66
2023/10/15 03:57:51;;;;;;;3.72;0.68;;;;;;;3.98;58.92;101358.97;4959840;28;20046;-65
2023/10/15 04:00:33;;;;;;;1.73;0.30;;;;;;;4.12;59.05;101361.50;4957907;28;20046;-70
2023/10/15 04:03:18;;;;;;;1.98;0.05;;;;;;;4.21;58.70;101373.53;4955489;28;20041;-70
2023/10/15 04:06:05;;;;;;;5.07;0.20;;;;;;;4.22;58.41;101406.28;4958614;28;20090;-69
2023/10/15 04:08:31;;;;;;;3.75;0.20;;;;;;;4.18;58.73;101420.09;4956618;28;20046;-67
2023/10/15 04:11:00;;;;;;;5.90;0.30;;;;;;;4.24;58.32;101420.06;4964487;28;20486;-70
2023/10/15 04:13:26;;;;;;;4.18;0.25;;;;;;;4.09;58.14;101423.56;4958467;28;20193;-69
2023/10/15 04:15:56;;;;;;;3.25;0.20;;;;;;;3.97;58.25;101421.91;4954740;28;20097;-70
2023/10/15 04:18:40;;;;;;;3.20;0.10;;;;;;;4.01;58.29;101410.69;4959896;28;20501;-69
2023/10/15 04:21:06;;;;;;;4.90;0.85;;;;;;;4.15;58.02;101383.88;4947161;28;20129;-70
2023/10/15 04:23:31;;;;;;;0.90;0.10;;;;;;;4.22;57.81;101382.97;4956930;28;20232;-70
2023/10/15 04:26:17;;;;;;;3.45;0.68;;;;;;;4.39;57.33;101369.97;4953618;28;20378;-70
2023/10/15 04:28:42;;;;;;;1.90;0.15;;;;;;;4.22;57.45;101357.97;4958034;28;20031;-70
2023/10/15 04:31:17;;;;;;;2.95;0.10;;;;;;;4.29;57.67;101363.09;4954021;28;21572;-68
2023/10/15 04:33:45;;;;;;;1.55;0.10;;;;;;;4.32;57.87;101352.72;4961064;28;20296;-68
2023/10/15 04:36:11;;;;;;;5.50;0.20;;;;;;;4.35;57.38;101345.81;4954428;28;20127;-66
2023/10/15 04:38:38;;;;;;;1.05;0.10;;;;;;;4.32;57.36;101339.78;4958708;28;20426;-68
2023/10/15 04:41:04;;;;;;;2.38;0.00;;;;;;;4.21;57.59;101350.22;4954584;28;20401;-66
2023/10/15 04:43:40;;;;;;;2.38;0.10;;;;;;;4.17;57.48;101339.03;4959439;28;20034;-67
2023/10/15 04:46:16;;;;;;;3.53;0.10;;;;;;;4.17;57.73;101348.53;4953829;28;20464;-66
2023/10/15 04:48:44;;;;;;;0.75;0.10;;;;;;;4.26;58.16;101364.00;4956489;28;20401;-69
2023/10/15 04:51:13;;;;;;;4.45;0.40;;;;;;;4.02;58.38;101370.16;4961378;28;20042;-69
2023/10/15 04:53:48;;;;;;;2.28;0.10;;;;;;;3.51;59.06;101383.25;4956909;28;20197;-69
2023/10/15 04:56:14;;;;;;;0.88;0.35;;;;;;;3.62;58.77;101414.25;4958529;28;20035;-69
2023/10/15 04:58:40;;;;;;;0.75;0.13;;;;;;;3.72;57.78;101417.69;4968885;28;20117;-67
2023/10/15 05:01:07;;;;;;;2.00;0.65;;;;;;;3.33;57.90;101409.97;4983070;28;20591;-68
2023/10/15 05:03:34;;;;;;;1.00;0.10;;;;;;;3.40;57.63;101416.00;4978607;28;20413;-69
2023/10/15 05:06:02;;;;;;;3.25;0.10;;;;;;;3.02;59.31;101388.44;4973612;28;20547;-69
2023/10/15 05:08:27;;;;;;;1.20;0.05;;;;;;;3.29;58.51;101381.56;4976736;28;20413;-69
2023/10/15 05:10:54;;;;;;;4.45;0.10;;;;;;;3.02;60.04;101375.53;4973381;28;20349;-68
2023/10/15 05:13:20;;;;;;;0.77;0.17;;;;;;;3.26;59.26;101368.63;4957290;28;20532;-68
2023/10/15 05:15:46;;;;;;;0.35;0.00;;;;;;;3.28;59.62;101375.53;4975234;28;20047;-68
2023/10/15 05:18:12;;;;;;;2.70;0.10;;;;;;;2.79;60.87;101365.22;4969373;28;20144;-69
2023/10/15 05:20:37;;;;;;;2.78;0.00;;;;;;;3.32;60.15;101376.41;4978142;28;20038;-68
2023/10/15 05:23:03;;;;;;;0.32;0.00;;;;;;;3.31;59.90;101369.50;4972812;28;20072;-69
2023/10/15 05:25:29;;;;;;;1.00;0.38;;;;;;;2.85;61.67;101359.22;4975394;28;20517;-70
2023/10/15 05:27:55;;;;;;;4.63;0.10;;;;;;;2.99;61.69;101370.38;4972482;28;20103;-70
2023/10/15 05:30:21;;;;;;;0.75;0.10;;;;;;;2.65;62.70;101372.97;4990421;28;20111;-70
2023/10/15 05:32:50;;;;;;;0.95;0.00;;;;;;;3.11;61.27;101383.31;4984994;28;20041;-66
2023/10/15 05:35:17;;;;;;;0.98;0.00;;;;;;;3.13;60.97;101376.38;4970436;28;20092;-69
2023/10/15 05:37:44;;;;;;;1.95;0.00;;;;;;;2.75;62.18;101379.84;4981974;28;20046;-69
2023/10/15 05:40:15;;;;;;;0.55;0.50;;;;;;;3.07;61.56;101378.13;4972054;28;20041;-70
2023/10/15 05:42:41;;;;;;;0.90;0.03;;;;;;;3.33;61.03;101373.81;4978125;28;20559;-70
2023/10/15 05:45:09;;;;;;;0.45;0.00;;;;;;;3.24;61.26;101380.69;4972967;28;20027;-67
2023/10/15 05:47:35;;;;;;;2.00;0.00;;;;;;;2.94;62.51;101385.03;4975174;28;20291;-68
2023/10/15 05:50:04;;;;;;;2.72;0.10;;;;;;;2.89;62.68;101377.28;4974874;28;20053;-71
2023/10/15 05:52:30;;;;;;;0.43;0.00;;;;;;;2.37;64.25;101386.66;4976407;28;20473;-68
2023/10/15 05:54:55;;;;;;;0.22;0.00;;;;;;;2.31;64.17;101384.91;4973982;28;20088;-68
2023/10/15 05:57:24;;;;;;;3.67;0.05;;;;;;;3.02;61.91;101382.44;4974976;28;20168;-67
2023/10/15 05:59:50;;;;;;;0.73;0.47;;;;;;;2.30;63.09;101381.50;4973888;28;20038;-68
2023/10/15 06:02:16;;;;;;;1.48;0.32;;;;;;;2.47;62.33;101373.81;4972039;28;20038;-67
2023/10/15 06:04:43;;;;;;;0.13;0.00;;;;;;;2.98;61.73;101397.09;4976160;28;20128;-67
2023/10/15 06:07:10;;;;;;;6.57;0.28;;;;;;;2.70;62.32;101394.47;4972500;28;20030;-67
2023/10/15 06:09:35;;;;;;;3.20;0.40;;;;;;;3.03;61.36;101391.91;4971383;28;20414;-70
2023/10/15 06:12:01;;;;;;;4.53;0.10;;;;;;;3.32;60.36;101399.69;4986041;28;20045;-68
2023/10/15 06:14:28;;;;;;;1.00;0.00;;;;;;;2.96;61.46;101409.13;4973692;28;20042;-68
2023/10/15 06:16:56;;;;;;;1.00;0.08;;;;;;;3.25;60.54;101384.97;4973502;28;20129;-68
2023/10/15 06:19:21;;;;;;;0.88;0.60;;;;;;;3.51;60.17;101409.09;4980206;28;20050;-70
2023/10/15 06:21:47;;;;;;;2.42;0.10;;;;;;;3.38;60.40;101417.72;4974610;28;20042;-69
2023/10/15 06:24:12;;;;;;;7.60;1.00;;;;;;;3.34;60.32;101432.41;4971747;28;20074;-70
2023/10/15 06:26:38;;;;;;;2.60;0.03;;;;;;;3.36;60.70;101456.50;4972663;28;20568;-68
2023/10/15 06:29:06;;;;;;;5.57;0.22;;;;;;;3.31;60.19;101452.19;4971872;28;20101;-70
2023/10/15 06:31:32;;;;;;;0.65;0.20;;;;;;;3.35;59.80;101453.91;4971812;28;20037;-69
2023/10/15 06:33:57;;;;;;;0.32;0.08;;;;;;;3.25;60.37;101440.13;4973149;28;20218;-69
2023/10/15 06:36:24;;;;;;;3.42;0.20;;;;;;;3.31;60.33;101437.53;4972465;28;20502;-69
2023/10/15 06:38:50;;;;;;;0.60;0.10;;;;;;;3.58;59.57;101452.19;4974887;28;20469;-67
2023/10/15 06:41:16;;;;;;;0.60;0.10;;;;;;;3.45;59.87;101458.22;5003418;28;20042;-67
2023/10/15 06:43:41;;;;;;;1.85;0.10;;;;;;;2.99;60.76;101450.44;4972612;28;20034;-67
2023/10/15 06:46:07;;;;;;;1.95;0.10;;;;;;;2.86;61.35;101446.13;4970344;28;20034;-67
2023/10/15 06:48:38;;;;;;;1.05;0.10;;;;;;;3.04;61.71;101453.03;4972795;28;20128;-67
2023/10/15 06:51:05;;;;;;;4.57;0.10;;;;;;;2.98;61.31;101482.31;4976396;28;20065;-66
2023/10/15 06:53:31;;;;;;;3.55;0.63;;;;;;;3.04;60.96;101456.47;4972774;28;20492;-67
2023/10/15 06:55:59;;;;;;;3.17;0.10;;;;;;;2.89;61.39;101453.84;4970279;28;20547;-65
2023/10/15 06:58:28;;;;;;;1.55;0.10;;;;;;;3.06;59.99;101456.47;4973271;28;20041;-66
2023/10/15 07:00:56;;;;;;;5.43;0.20;;;;;;;2.98;60.29;101449.59;4969150;28;20384;-70
2023/10/15 07:03:23;;;;;;;2.45;0.25;;;;;;;2.85;60.64;101447.00;4987415;28;20567;-68
2023/10/15 07:05:49;;;;;;;2.28;0.10;;;;;;;3.11;60.40;101440.13;4976464;28;20129;-71
2023/10/15 07:08:15;;;;;;;1.95;0.20;;;;;;;3.25;60.27;101450.47;4970018;28;20045;-69
2023/10/15 07:10:41;;;;;;;1.45;0.38;;;;;;;3.31;60.58;101454.78;4982365;28;20436;-70
2023/10/15 07:13:07;;;;;;;2.17;0.20;;;;;;;3.34;60.17;101463.41;4971786;28;20192;-70
2023/10/15 07:15:36;;;;;;;4.43;0.20;;;;;;;3.17;61.03;101478.84;4971827;28;20612;-70
2023/10/15 07:18:03;;;;;;;3.08;0.43;;;;;;;3.48;60.44;101483.22;4972217;28;20037;-68
2023/10/15 07:20:29;;;;;;;1.58;0.17;;;;;;;3.41;60.19;101482.34;4974828;28;20104;-71
2023/10/15 07:22:56;;;;;;;3.33;0.10;;;;;;;3.54;59.75;101488.38;4976210;28;20038;-69
2023/10/15 07:25:24;;;;;;;3.70;0.40;;;;;;;3.28;60.26;101481.44;4971863;28;20038;-68
2023/10/15 07:27:50;;;;;;;2.35;0.10;;;;;;;3.10;61.02;101490.06;4984515;28;20481;-69
2023/10/15 07:30:19;;;;;;;4.22;0.20;;;;;;;2.99;61.83;101481.44;4960632;28;20073;-68
2023/10/15 07:32:45;;;;;;;1.08;0.10;;;;;;;3.23;61.30;101490.94;4975376;28;20030;-68
2023/10/15 07:35:14;;;;;;;2.35;0.25;;;;;;;3.33;61.09;101499.56;4957851;28;20077;-69
2023/10/15 07:37:44;;;;;;;5.78;0.15;;;;;;;3.77;60.14;101494.38;4974972;28;20686;-69
2023/10/15 07:40:17;;;;;;;2.33;0.10;;;;;;;3.38;60.47;101501.31;4974260;28;20554;-69
2023/10/15 07:42:44;;;;;;;0.60;0.10;;;;;;;3.12;61.90;101506.41;4984195;28;20041;-71
2023/10/15 07:45:11;;;;;;;2.17;0.17;;;;;;;3.50;61.35;101510.78;4972616;28;20091;-67
2023/10/15 07:47:37;;;;;;;3.00;0.10;;;;;;;3.76;60.04;101515.03;4978617;28;20026;-67
2023/10/15 07:50:05;;;;;;;1.25;0.77;;;;;;;3.74;60.74;101512.47;4974185;28;20055;-68
2023/10/15 07:52:31;;;;;;;4.40;0.13;;;;;;;3.78;60.90;101516.78;4978933;28;20558;-70
2023/10/15 07:54:58;;;;;;;8.50;0.30;;;;;;;4.05;60.15;101514.13;4979423;28;20039;-68
2023/10/15 07:57:26;;;;;;;1.70;0.15;;;;;;;4.15;59.89;101521.00;4975464;28;20074;-71
2023/10/15 07:59:54;;;;;;;2.95;0.20;;;;;;;4.20;59.30;101520.13;4977352;28;20049;-70
2023/10/15 08:02:23;;;;;;;2.33;0.17;;;;;;;4.30;59.39;101518.38;4976552;28;20105;-70
2023/10/15 08:04:54;;;;;;;2.70;0.30;;;;;;;4.59;59.57;101523.44;4978126;28;20057;-71
2023/10/15 08:07:20;;;;;;;3.33;0.40;;;;;;;6.17;59.20;101529.16;4981515;28;20174;-69
2023/10/15 08:09:46;;;;;;;4.70;0.50;;;;;;;8.06;53.68;101513.34;4977061;28;20500;-69
2023/10/15 08:12:11;;;;;;;7.93;0.63;;;;;;;8.77;51.90;101523.19;4973904;28;20056;-69
2023/10/15 08:14:37;;;;;;;4.57;0.60;;;;;;;9.21;47.45;101538.75;4977801;28;20041;-70
2023/10/15 08:17:03;;;;;;;4.18;0.35;;;;;;;8.40;49.31;101527.44;4975350;28;20054;-69
2023/10/15 08:19:29;;;;;;;3.08;0.10;;;;;;;6.84;50.04;101537.88;4985776;28;20116;-68
2023/10/15 08:21:54;;;;;;;3.03;0.30;;;;;;;5.80;52.80;101546.81;4983091;28;20665;-69
2023/10/15 08:24:20;;;;;;;1.13;0.28;;;;;;;5.45;53.95;101555.75;4980558;28;20042;-69
2023/10/15 08:26:47;;;;;;;1.95;0.47;;;;;;;5.49;54.22;101560.06;4980387;28;20111;-68
2023/10/15 08:29:13;;;;;;;3.03;0.20;;;;;;;5.50;54.30;101563.50;4975642;28;20081;-68
2023/10/15 08:31:38;;;;;;;2.00;0.40;;;;;;;5.50;54.69;101551.38;4977193;28;20610;-68
2023/10/15 08:34:04;;;;;;;3.35;0.10;;;;;;;5.47;54.59;101548.81;4978328;28;20128;-67
2023/10/15 08:36:29;;;;;;;4.38;0.55;;;;;;;5.70;54.12;101559.00;4977030;28;20030;-68
2023/10/15 08:38:55;;;;;;;3.00;0.13;;;;;;;5.82;54.50;101555.47;4976678;28;20030;-67
2023/10/15 08:41:22;;;;;;;3.08;0.20;;;;;;;5.78;55.19;101561.53;4977500;28;20026;-68
2023/10/15 08:43:51;;;;;;;0.88;0.13;;;;;;;5.90;54.92;101566.59;4977490;28;20050;-67
2023/10/15 08:46:22;;;;;;;6.80;0.40;;;;;;;6.14;55.63;101580.22;4981092;28;20030;-68
2023/10/15 08:48:49;;;;;;;1.90;0.28;;;;;;;6.49;54.63;101583.34;4991803;28;20332;-67
2023/10/15 08:51:21;;;;;;;5.90;0.40;;;;;;;6.93;54.56;101588.00;4976641;28;20597;-67
2023/10/15 08:53:47;;;;;;;;;;;;;;;7.06;53.30;101605.13;4978525;28;20579;-68
2023/10/15 08:56:14;;;;;;;3.67;0.20;;;;;;;6.56;53.75;101617.03;4977666;28;20319;-67
2023/10/15 08:58:40;;;;;;;5.15;0.38;;;;;;;5.60;55.66;101622.22;4984078;28;20026;-68
2023/10/15 09:01:05;;;;;;;4.03;0.10;;;;;;;4.87;56.67;101616.53;4981164;28;20390;-67
2023/10/15 09:03:31;;;;;;;3.63;0.20;;;;;;;4.88;56.10;101625.19;4974141;28;20208;-67
2023/10/15 09:05:57;;;;;;;3.53;0.20;;;;;;;4.72;56.92;101630.44;4963324;28;20700;-68
2023/10/15 09:08:23;;;;;;;2.53;0.30;;;;;;;4.91;56.15;101617.44;4989521;28;20042;-68
2023/10/15 09:10:52;;;;;;;7.35;0.43;;;;;;;5.04;55.98;101609.59;4976165;28;20042;-67
2023/10/15 09:13:21;;;;;;;1.75;0.40;;;;;;;5.13;55.73;101619.03;4975651;28;20034;-68
2023/10/15 09:15:49;;;;;;;5.78;0.25;;;;;;;5.18;55.67;101617.28;4977582;28;20557;-66
2023/10/15 09:18:15;;;;;;;1.10;0.10;;;;;;;5.13;55.54;101621.63;4972908;28;20053;-68
2023/10/15 09:20:44;;;;;;;1.77;0.30;;;;;;;5.07;56.37;101624.25;4977250;28;20097;-67
2023/10/15 09:23:10;;;;;;;2.90;0.20;;;;;;;5.11;56.07;101631.16;4971468;28;20110;-67
2023/10/15 09:25:35;;;;;;;4.35;0.43;;;;;;;4.84;55.54;101617.41;4976389;28;20133;-67
2023/10/15 09:28:02;;;;;;;1.30;0.10;;;;;;;5.11;54.62;101619.91;4984787;28;20038;-66
2023/10/15 09:30:31;;;;;;;5.15;0.20;;;;;;;5.14;53.97;101631.13;4971687;28;21595;-67
2023/10/15 09:32:57;;;;;;;5.78;0.30;;;;;;;5.15;54.67;101637.19;4991442;28;20411;-67
2023/10/15 09:35:23;;;;;;;7.07;0.30;;;;;;;5.48;55.38;101628.34;4974025;28;20270;-68
2023/10/15 09:37:53;;;;;;;1.52;0.30;;;;;;;6.45;53.57;101638.78;4977176;28;20030;-67
2023/10/15 09:40:20;;;;;;;2.92;0.30;;;;;;;7.06;51.44;101631.97;4973595;28;20346;-67
2023/10/15 09:42:53;;;;;;;6.00;1.00;;;;;;;7.52;51.17;101636.56;4985480;28;20140;-66
2023/10/15 09:45:23;;;;;;;7.00;0.20;;;;;;;8.19;48.99;101643.31;4976472;28;20092;-68
2023/10/15 09:48:09;;;;;;;4.85;0.60;;;;;;;9.02;48.29;101647.81;4976920;28;20025;-68
2023/10/15 09:50:38;;;;;;;4.47;0.20;;;;;;;8.94;45.14;101652.31;4984337;28;20532;-68
2023/10/15 09:53:10;;;;;;;2.13;0.30;;;;;;;9.89;46.75;101646.75;4967293;28;20508;-67
2023/10/15 09:55:37;;;;;;;1.75;0.63;;;;;;;9.77;45.55;101648.72;4975560;28;20141;-68
2023/10/15 09:58:10;;;;;;;1.67;0.30;;;;;;;8.89;47.19;101651.56;4975075;28;20049;-67
2023/10/15 10:01:07;;;;;;;7.40;0.20;;;;;;;8.75;48.52;101655.31;4988285;28;20038;-67
2023/10/15 10:03:52;;;;;;;3.50;0.20;;;;;;;9.38;47.71;101659.19;4978728;28;20058;-68
2023/10/15 10:06:38;;;;;;;4.20;0.60;;;;;;;8.81;46.80;101666.50;4972698;28;20141;-68
2023/10/15 10:09:37;;;;;;;2.67;0.10;;;;;;;8.78;47.73;101659.59;4977826;28;20045;-66
2023/10/15 10:12:16;;;;;;;2.80;0.10;;;;;;;8.04;49.63;101676.53;4971912;28;20032;-65
2023/10/15 10:15:10;;;;;;;1.77;0.17;;;;;;;8.89;48.09;101683.69;4973088;28;20045;-66
2023/10/15 10:17:38;;;;;;;3.72;0.52;;;;;;;9.17;46.44;101689.22;4974474;28;20536;-66
2023/10/15 10:20:11;;;;;;;6.70;0.38;;;;;;;8.89;47.38;101686.31;4963285;28;20115;-66
2023/10/15 10:22:38;;;;;;;4.28;0.28;;;;;;;8.56;47.97;101687.78;4975838;28;20105;-66
2023/10/15 10:25:07;;;;;;;5.85;0.20;;;;;;;8.22;48.16;101696.19;4947494;28;20120;-67
2023/10/15 10:27:43;;;;;;;2.80;0.45;;;;;;;8.11;48.64;101695.53;4971638;28;20129;-66
2023/10/15 10:30:23;;;;;;;4.75;0.30;;;;;;;7.95;48.78;101687.09;4974158;28;20072;-66
2023/10/15 10:32:50;;;;;;;2.78;0.10;;;;;;;7.70;47.72;101689.22;4973442;28;20424;-68
2023/10/15 10:35:20;;;;;;;2.83;0.28;;;;;;;8.13;48.56;101697.22;4974879;28;20057;-67
2023/10/15 10:38:05;;;;;;;6.85;0.65;;;;;;;7.84;48.89;101702.88;4973329;28;20389;-67
2023/10/15 10:40:49;;;;;;;4.03;0.90;;;;;;;8.17;48.05;101705.00;4972065;28;20066;-68
2023/10/15 10:43:24;;;;;;;4.25;0.45;;;;;;;8.14;48.21;101706.75;4971993;28;20095;-67
2023/10/15 10:46:00;;;;;;;7.35;0.22;;;;;;;7.90;48.43;101712.34;4996401;28;20037;-69
2023/10/15 10:48:33;;;;;;;7.45;0.40;;;;;;;7.87;48.59;101713.25;4973280;28;20054;-68
2023/10/15 10:51:21;;;;;;;3.92;0.30;;;;;;;8.63;47.60;101717.19;4973705;28;20354;-69
2023/10/15 10:53:55;;;;;;;2.95;0.47;;;;;;;8.86;45.20;101714.19;4977223;28;20454;-68
2023/10/15 10:56:22;;;;;;;5.05;0.47;;;;;;;9.62;43.89;101721.31;4970007;28;20091;-69
2023/10/15 10:58:51;;;;;;;4.78;0.30;;;;;;;8.91;41.07;101696.72;4962701;28;20084;-68
2023/10/15 11:01:20;;;;;;;2.03;0.00;;;;;;;9.28;41.61;101707.25;5001668;28;20027;-69
2023/10/15 11:03:47;;;;;;;4.65;0.55;;;;;;;9.07;38.80;101713.75;4971930;28;20026;-67
2023/10/15 11:06:13;;;;;;;0.80;0.10;;;;;;;9.44;39.34;101712.16;4973518;28;20528;-67
2023/10/15 11:08:39;;;;;;;3.47;0.40;;;;;;;8.98;38.89;101709.63;4971320;28;20041;-67
2023/10/15 11:11:04;;;;;;;1.95;0.10;;;;;;;7.67;38.55;101715.31;4973102;28;20367;-66
2023/10/15 11:13:30;;;;;;;2.40;0.13;;;;;;;7.55;40.12;101713.72;4974457;28;20468;-67
2023/10/15 11:15:56;;;;;;;3.72;0.28;;;;;;;8.25;39.93;101722.22;4979754;28;20872;-68
2023/10/15 11:18:26;;;;;;;1.10;0.20;;;;;;;8.88;38.92;101715.88;4976349;28;20129;-68
2023/10/15 11:20:52;;;;;;;2.42;0.20;;;;;;;9.75;38.81;101712.31;4979290;28;20056;-67
2023/10/15 11:23:18;;;;;;;1.05;0.75;;;;;;;10.17;37.81;101704.38;4961459;28;20034;-68
2023/10/15 11:25:45;;;;;;;3.80;0.20;;;;;;;10.46;36.80;101710.59;4986096;28;20038;-68
2023/10/15 11:28:11;;;;;;;2.97;0.25;;;;;;;10.50;36.65;101718.31;4977168;28;20461;-68
2023/10/15 11:30:41;;;;;;;2.25;0.38;;;;;;;10.73;37.61;101714.25;4973482;28;20622;-68
2023/10/15 11:33:09;;;;;;;2.83;0.70;;;;;;;11.09;37.60;101712.38;4977137;28;20043;-67
2023/10/15 11:35:34;;;;;;;3.22;0.30;;;;;;;11.65;37.79;101701.97;4974948;28;20042;-68
2023/10/15 11:38:10;;;;;;;2.50;0.43;;;;;;;12.52;35.09;101710.50;4979981;28;20065;-68
2023/10/15 11:40:37;;;;;;;4.00;0.20;;;;;;;11.79;35.58;101719.88;4974969;28;23582;-69
2023/10/15 11:43:24;;;;;;;3.15;0.52;;;;;;;10.02;38.73;101726.50;4972438;28;20032;-68
2023/10/15 11:45:56;;;;;;;3.25;0.28;;;;;;;9.43;40.22;101731.28;4971803;28;20327;-68
2023/10/15 11:48:21;;;;;;;5.72;0.77;;;;;;;9.05;41.55;101731.19;4969917;28;20565;-68
2023/10/15 11:50:50;;;;;;;3.17;0.60;;;;;;;9.67;39.08;101730.75;4971993;28;20048;-68
2023/10/15 11:53:24;;;;;;;7.47;0.75;;;;;;;9.98;38.13;101730.06;4974464;28;20030;-69
2023/10/15 11:55:56;;;;;;;3.15;0.35;;;;;;;10.62;37.54;101731.06;4973149;28;20103;-69
2023/10/15 11:58:30;;;;;;;3.78;0.30;;;;;;;10.65;35.91;101732.75;4972713;28;20038;-68
2023/10/15 12:00:58;;;;;;;6.30;0.28;;;;;;;10.80;34.48;101737.56;4974611;28;20129;-68
2023/10/15 12:03:24;;;;;;;4.78;0.30;;;;;;;10.30;34.08;101731.03;4972810;28;20046;-69
2023/10/15 12:05:51;;;;;;;3.88;0.10;;;;;;;10.47;34.75;101741.91;4974853;28;20551;-68
2023/10/15 12:08:21;;;;;;;2.25;0.10;;;;;;;10.49;35.65;101741.88;4975462;28;20409;-69